Time,TemperatureF,DewpointF,PressureIn,WindDirection,WindDirectionDegrees,WindSpeedMPH,WindSpeedGustMPH,Humidity,HourlyPrecipIn,Conditions,Clouds,dailyrainin,SoftwareType,DateUTC
2013-12-12 00:00:00,20.8,17.3,30.23,North,355,0.0,8.0,86,0.00,,,0.00,Wunderground v.1.15,2013-12-12 05:00:00,
2013-12-12 00:05:00,20.8,17.5,30.23,North,355,0.0,8.0,87,0.00,,,0.00,Wunderground v.1.15,2013-12-12 05:05:00,
2013-12-12 00:10:00,20.8,17.8,30.23,NNW,340,1.0,1.0,88,0.00,,,0.00,Wunderground v.1.15,2013-12-12 05:10:00,
2013-12-12 00:15:00,20.8,17.8,30.23,NNW,340,1.0,8.0,88,0.00,,,0.00,Wunderground v.1.15,2013-12-12 05:15:00,
2013-12-12 00:20:00,20.7,18.0,30.23,NNW,340,0.0,8.0,89,0.00,,,0.00,Wunderground v.1.15,2013-12-12 05:20:00,
2013-12-12 00:25:00,20.7,18.0,30.23,NNW,340,0.0,8.0,89,0.00,,,0.00,Wunderground v.1.15,2013-12-12 05:25:00,
2013-12-12 00:30:00,20.6,18.1,30.23,NNW,340,0.0,8.0,90,0.00,,,0.00,Wunderground v.1.15,2013-12-12 05:30:00,
2013-12-12 00:35:00,20.5,18.0,30.22,NNW,340,0.0,8.0,90,0.00,,,0.00,Wunderground v.1.15,2013-12-12 05:35:00,
2013-12-12 00:40:00,20.5,18.0,30.22,NNW,340,0.0,8.0,90,0.00,,,0.00,Wunderground v.1.15,2013-12-12 05:40:00,
2013-12-12 00:50:00,20.2,17.7,30.22,NNW,340,0.0,8.0,90,0.00,,,0.00,Wunderground v.1.15,2013-12-12 05:50:00,
2013-12-12 00:55:00,20.1,17.6,30.22,NNW,340,0.0,8.0,90,0.00,,,0.00,Wunderground v.1.15,2013-12-12 05:55:00,
2013-12-12 01:00:00,20.0,17.5,30.22,NNW,340,0.0,8.0,90,0.00,,,0.00,Wunderground v.1.15,2013-12-12 06:00:00,
2013-12-12 01:05:00,19.8,17.6,30.22,NNE,15,0.0,8.0,91,0.00,,,0.00,Wunderground v.1.15,2013-12-12 06:05:00,
2013-12-12 01:10:00,19.8,17.6,30.22,NNE,15,0.0,8.0,91,0.00,,,0.00,Wunderground v.1.15,2013-12-12 06:10:00,
2013-12-12 01:15:00,19.7,17.5,30.22,NNE,15,0.0,8.0,91,0.00,,,0.00,Wunderground v.1.15,2013-12-12 06:15:00,
2013-12-12 01:25:00,19.7,17.5,30.22,NNE,15,0.0,8.0,91,0.00,,,0.00,Wunderground v.1.15,2013-12-12 06:25:00,
2013-12-12 01:30:00,19.7,17.5,30.23,NNE,15,0.0,8.0,91,0.00,,,0.00,Wunderground v.1.15,2013-12-12 06:30:00,
2013-12-12 01:35:00,19.8,17.9,30.23,NNE,15,0.0,8.0,92,0.00,,,0.00,Wunderground v.1.15,2013-12-12 06:35:00,
2013-12-12 01:40:00,19.9,18.0,30.23,NNE,15,0.0,8.0,92,0.00,,,0.00,Wunderground v.1.15,2013-12-12 06:40:00,
2013-12-12 01:45:00,20.0,18.1,30.23,NNE,21,0.0,8.0,92,0.00,,,0.00,Wunderground v.1.15,2013-12-12 06:45:00,
2013-12-12 01:50:00,20.1,18.1,30.23,NNE,21,0.0,8.0,92,0.00,,,0.00,Wunderground v.1.15,2013-12-12 06:50:00,
2013-12-12 01:55:00,20.2,18.0,30.23,NNE,26,0.0,8.0,91,0.00,,,0.00,Wunderground v.1.15,2013-12-12 06:55:00,
2013-12-12 02:05:00,20.2,17.7,30.24,NNE,26,0.0,8.0,90,0.00,,,0.00,Wunderground v.1.15,2013-12-12 07:05:00,
2013-12-12 02:10:00,20.1,17.4,30.24,NE,41,0.0,8.0,89,0.00,,,0.00,Wunderground v.1.15,2013-12-12 07:10:00,
2013-12-12 02:15:00,20.0,17.3,30.24,NNE,28,0.0,8.0,89,0.00,,,0.00,Wunderground v.1.15,2013-12-12 07:15:00,
2013-12-12 02:20:00,19.8,17.1,30.24,NNE,28,0.0,8.0,89,0.00,,,0.00,Wunderground v.1.15,2013-12-12 07:20:00,
2013-12-12 02:25:00,19.7,16.7,30.24,NNE,28,0.0,8.0,88,0.00,,,0.00,Wunderground v.1.15,2013-12-12 07:25:00,
2013-12-12 02:30:00,19.4,16.4,30.24,NNE,28,0.0,8.0,88,0.00,,,0.00,Wunderground v.1.15,2013-12-12 07:30:00,
2013-12-12 02:35:00,19.2,16.5,30.24,NNE,28,0.0,8.0,89,0.00,,,0.00,Wunderground v.1.15,2013-12-12 07:35:00,
2013-12-12 02:40:00,18.9,16.2,30.23,NNE,28,0.0,8.0,89,0.00,,,0.00,Wunderground v.1.15,2013-12-12 07:40:00,
2013-12-12 02:45:00,18.5,16.1,30.24,NNE,28,0.0,8.0,90,0.00,,,0.00,Wunderground v.1.15,2013-12-12 07:45:00,
2013-12-12 02:50:00,18.3,15.9,30.24,NNE,28,0.0,8.0,90,0.00,,,0.00,Wunderground v.1.15,2013-12-12 07:50:00,
2013-12-12 02:55:00,18.1,15.4,30.24,NNE,28,0.0,8.0,89,0.00,,,0.00,Wunderground v.1.15,2013-12-12 07:55:00,
2013-12-12 03:05:00,17.7,15.0,30.24,NNE,28,0.0,8.0,89,0.00,,,0.00,Wunderground v.1.15,2013-12-12 08:05:00,
2013-12-12 03:10:00,17.5,14.8,30.24,NNE,28,0.0,8.0,89,0.00,,,0.00,Wunderground v.1.15,2013-12-12 08:10:00,
2013-12-12 03:15:00,17.3,14.6,30.24,NNE,28,0.0,8.0,89,0.00,,,0.00,Wunderground v.1.15,2013-12-12 08:15:00,
2013-12-12 03:20:00,17.2,14.3,30.24,NNE,28,0.0,8.0,88,0.00,,,0.00,Wunderground v.1.15,2013-12-12 08:20:00,
2013-12-12 03:25:00,17.1,13.9,30.24,NNE,28,0.0,8.0,87,0.00,,,0.00,Wunderground v.1.15,2013-12-12 08:25:00,
2013-12-12 03:30:00,17.0,13.8,30.25,NNE,28,0.0,8.0,87,0.00,,,0.00,Wunderground v.1.15,2013-12-12 08:30:00,
2013-12-12 03:35:00,16.7,13.5,30.25,NNE,28,0.0,8.0,87,0.00,,,0.00,Wunderground v.1.15,2013-12-12 08:35:00,
2013-12-12 03:40:00,16.4,13.5,30.25,NNE,28,0.0,8.0,88,0.00,,,0.00,Wunderground v.1.15,2013-12-12 08:40:00,
2013-12-12 03:45:00,16.1,13.2,30.25,NNE,28,0.0,8.0,88,0.00,,,0.00,Wunderground v.1.15,2013-12-12 08:45:00,
2013-12-12 03:50:00,16.0,13.1,30.25,NE,49,1.0,8.0,88,0.00,,,0.00,Wunderground v.1.15,2013-12-12 08:50:00,
2013-12-12 03:55:00,16.1,12.9,30.25,NE,50,1.0,8.0,87,0.00,,,0.00,Wunderground v.1.15,2013-12-12 08:55:00,
2013-12-12 04:00:00,16.2,12.7,30.25,NE,50,1.0,1.0,86,0.00,,,0.00,Wunderground v.1.15,2013-12-12 09:00:00,
2013-12-12 04:05:00,16.2,12.7,30.25,NE,50,0.0,8.0,86,0.00,,,0.00,Wunderground v.1.15,2013-12-12 09:05:00,
2013-12-12 04:15:00,15.9,12.5,30.25,NE,50,0.0,8.0,86,0.00,,,0.00,Wunderground v.1.15,2013-12-12 09:15:00,
2013-12-12 04:20:00,15.5,12.1,30.26,NE,50,0.0,8.0,86,0.00,,,0.00,Wunderground v.1.15,2013-12-12 09:20:00,
2013-12-12 04:25:00,15.1,11.9,30.26,NE,50,0.0,8.0,87,0.00,,,0.00,Wunderground v.1.15,2013-12-12 09:25:00,
2013-12-12 04:30:00,14.9,12.0,30.26,NE,50,0.0,8.0,88,0.00,,,0.00,Wunderground v.1.15,2013-12-12 09:30:00,
2013-12-12 04:35:00,14.9,12.0,30.26,NE,50,0.0,8.0,88,0.00,,,0.00,Wunderground v.1.15,2013-12-12 09:35:00,
2013-12-12 04:40:00,14.8,11.9,30.26,NE,50,0.0,8.0,88,0.00,,,0.00,Wunderground v.1.15,2013-12-12 09:40:00,
2013-12-12 04:45:00,14.4,11.5,30.26,NE,50,0.0,8.0,88,0.00,,,0.00,Wunderground v.1.15,2013-12-12 09:45:00,
2013-12-12 04:50:00,14.3,11.4,30.27,NE,50,0.0,8.0,88,0.00,,,0.00,Wunderground v.1.15,2013-12-12 09:50:00,
2013-12-12 04:55:00,14.3,11.4,30.27,NE,50,1.0,8.0,88,0.00,,,0.00,Wunderground v.1.15,2013-12-12 09:55:00,
2013-12-12 05:00:00,14.5,11.6,30.27,NNE,32,1.0,8.0,88,0.00,,,0.00,Wunderground v.1.15,2013-12-12 10:00:00,
2013-12-12 05:05:00,14.6,11.4,30.27,NE,38,1.0,8.0,87,0.00,,,0.00,Wunderground v.1.15,2013-12-12 10:05:00,
2013-12-12 05:15:00,15.1,11.9,30.27,North,5,2.0,8.0,87,0.00,,,0.00,Wunderground v.1.15,2013-12-12 10:15:00,
2013-12-12 05:20:00,15.2,12.0,30.27,NE,35,1.0,8.0,87,0.00,,,0.00,Wunderground v.1.15,2013-12-12 10:20:00,
2013-12-12 05:25:00,15.2,12.0,30.27,NE,41,2.0,8.0,87,0.00,,,0.00,Wunderground v.1.15,2013-12-12 10:25:00,
2013-12-12 05:30:00,15.1,12.2,30.27,North,11,2.0,8.0,88,0.00,,,0.00,Wunderground v.1.15,2013-12-12 10:30:00,
2013-12-12 05:40:00,15.0,12.1,30.28,NE,47,2.0,8.0,88,0.00,,,0.00,Wunderground v.1.15,2013-12-12 10:40:00,
2013-12-12 05:45:00,14.8,11.9,30.28,NNE,15,2.0,8.0,88,0.00,,,0.00,Wunderground v.1.15,2013-12-12 10:45:00,
2013-12-12 05:50:00,14.7,11.5,30.29,ENE,57,2.0,2.0,87,0.00,,,0.00,Wunderground v.1.15,2013-12-12 10:50:00,
2013-12-12 05:55:00,14.4,11.2,30.29,NE,46,1.0,8.0,87,0.00,,,0.00,Wunderground v.1.15,2013-12-12 10:55:00,
2013-12-12 06:00:00,14.2,11.0,30.29,NE,37,0.0,8.0,87,0.00,,,0.00,Wunderground v.1.15,2013-12-12 11:00:00,
2013-12-12 06:10:00,13.9,10.7,30.29,NE,36,0.0,8.0,87,0.00,,,0.00,Wunderground v.1.15,2013-12-12 11:10:00,
2013-12-12 06:15:00,13.6,10.5,30.29,North,5,0.0,8.0,87,0.00,,,0.00,Wunderground v.1.15,2013-12-12 11:15:00,
2013-12-12 06:20:00,13.2,10.1,30.30,North,5,0.0,8.0,87,0.00,,,0.00,Wunderground v.1.15,2013-12-12 11:20:00,
2013-12-12 06:25:00,13.1,10.2,30.30,NE,38,0.0,8.0,88,0.00,,,0.00,Wunderground v.1.15,2013-12-12 11:25:00,
2013-12-12 06:30:00,12.9,10.0,30.30,NE,38,1.0,8.0,88,0.00,,,0.00,Wunderground v.1.15,2013-12-12 11:30:00,
2013-12-12 06:35:00,13.0,10.1,30.31,North,5,1.0,8.0,88,0.00,,,0.00,Wunderground v.1.15,2013-12-12 11:35:00,
2013-12-12 06:40:00,13.0,9.9,30.31,NE,45,1.0,1.0,87,0.00,,,0.00,Wunderground v.1.15,2013-12-12 11:40:00,
2013-12-12 06:45:00,13.0,9.9,30.31,East,84,1.0,8.0,87,0.00,,,0.00,Wunderground v.1.15,2013-12-12 11:45:00,
2013-12-12 06:55:00,13.0,9.3,30.31,NE,53,0.0,8.0,85,0.00,,,0.00,Wunderground v.1.15,2013-12-12 11:55:00,
2013-12-12 07:00:00,12.8,9.1,30.31,North,9,0.0,8.0,85,0.00,,,0.00,Wunderground v.1.15,2013-12-12 12:00:00,
2013-12-12 07:05:00,12.8,9.1,30.31,North,9,0.0,8.0,85,0.00,,,0.00,Wunderground v.1.15,2013-12-12 12:05:00,
2013-12-12 07:10:00,12.7,9.0,30.31,North,9,0.0,8.0,85,0.00,,,0.00,Wunderground v.1.15,2013-12-12 12:10:00,
2013-12-12 07:15:00,12.6,8.9,30.32,North,9,0.0,8.0,85,0.00,,,0.00,Wunderground v.1.15,2013-12-12 12:15:00,
2013-12-12 07:20:00,12.3,8.7,30.32,North,9,0.0,8.0,85,0.00,,,0.00,Wunderground v.1.15,2013-12-12 12:20:00,
2013-12-12 07:25:00,12.1,8.5,30.32,North,9,0.0,8.0,85,0.00,,,0.00,Wunderground v.1.15,2013-12-12 12:25:00,
2013-12-12 07:35:00,12.1,8.7,30.32,North,9,0.0,8.0,86,0.00,,,0.00,Wunderground v.1.15,2013-12-12 12:35:00,
2013-12-12 07:40:00,12.5,9.4,30.32,North,9,0.0,8.0,87,0.00,,,0.00,Wunderground v.1.15,2013-12-12 12:40:00,
2013-12-12 07:45:00,13.2,10.1,30.33,North,9,0.0,8.0,87,0.00,,,0.00,Wunderground v.1.15,2013-12-12 12:45:00,
2013-12-12 07:55:00,14.8,10.8,30.33,North,9,0.0,8.0,84,0.00,,,0.00,Wunderground v.1.15,2013-12-12 12:55:00,
2013-12-12 08:00:00,15.0,10.5,30.33,North,9,0.0,8.0,82,0.00,,,0.00,Wunderground v.1.15,2013-12-12 13:00:00,
2013-12-12 08:05:00,15.2,10.1,30.33,NE,53,0.0,8.0,80,0.00,,,0.00,Wunderground v.1.15,2013-12-12 13:05:00,
2013-12-12 08:10:00,15.3,9.7,30.33,ENE,63,1.0,8.0,78,0.00,,,0.00,Wunderground v.1.15,2013-12-12 13:10:00,
2013-12-12 08:15:00,15.7,9.8,30.33,ENE,63,1.0,8.0,77,0.00,,,0.00,Wunderground v.1.15,2013-12-12 13:15:00,
2013-12-12 08:25:00,15.9,9.7,30.33,NNE,22,1.0,8.0,76,0.00,,,0.00,Wunderground v.1.15,2013-12-12 13:25:00,
2013-12-12 08:30:00,15.9,9.4,30.33,NE,55,1.0,8.0,75,0.00,,,0.00,Wunderground v.1.15,2013-12-12 13:30:00,
2013-12-12 08:35:00,15.8,9.0,30.33,ENE,65,2.0,8.0,74,0.00,,,0.00,Wunderground v.1.15,2013-12-12 13:35:00,
2013-12-12 08:40:00,15.9,9.1,30.33,NE,52,2.0,8.0,74,0.00,,,0.00,Wunderground v.1.15,2013-12-12 13:40:00,
2013-12-12 08:45:00,16.2,9.4,30.33,NE,46,2.0,8.0,74,0.00,,,0.00,Wunderground v.1.15,2013-12-12 13:45:00,
2013-12-12 08:50:00,16.2,8.4,30.34,NE,46,2.0,2.0,71,0.00,,,0.00,Wunderground v.1.15,2013-12-12 13:50:00,
2013-12-12 08:55:00,16.4,8.9,30.34,NNE,23,3.0,3.0,72,0.00,,,0.00,Wunderground v.1.15,2013-12-12 13:55:00,
2013-12-12 09:00:00,16.4,8.3,30.34,ENE,57,2.0,8.0,70,0.00,,,0.00,Wunderground v.1.15,2013-12-12 14:00:00,
2013-12-12 09:05:00,16.4,8.3,30.34,NNE,13,3.0,8.0,70,0.00,,,0.00,Wunderground v.1.15,2013-12-12 14:05:00,
2013-12-12 09:15:00,16.7,8.9,30.34,NE,36,2.0,8.0,71,0.00,,,0.00,Wunderground v.1.15,2013-12-12 14:15:00,
2013-12-12 09:20:00,16.9,8.2,30.34,NE,44,2.0,8.0,68,0.00,,,0.00,Wunderground v.1.15,2013-12-12 14:20:00,
2013-12-12 09:25:00,17.2,8.8,30.34,ENE,60,2.0,8.0,69,0.00,,,0.00,Wunderground v.1.15,2013-12-12 14:25:00,
2013-12-12 09:30:00,17.3,7.9,30.34,NNE,32,2.0,8.0,66,0.00,,,0.00,Wunderground v.1.15,2013-12-12 14:30:00,
2013-12-12 09:35:00,17.3,8.2,30.34,NNE,23,3.0,8.0,67,0.00,,,0.00,Wunderground v.1.15,2013-12-12 14:35:00,
2013-12-12 09:40:00,17.0,7.6,30.34,NNE,22,3.0,8.0,66,0.00,,,0.00,Wunderground v.1.15,2013-12-12 14:40:00,
2013-12-12 09:45:00,17.0,7.3,30.34,NNE,18,4.0,8.0,65,0.00,,,0.00,Wunderground v.1.15,2013-12-12 14:45:00,
2013-12-12 09:55:00,17.2,7.8,30.34,NE,49,3.0,8.0,66,0.00,,,0.00,Wunderground v.1.15,2013-12-12 14:55:00,
2013-12-12 10:00:00,17.6,7.5,30.34,NNW,348,3.0,3.0,64,0.00,,,0.00,Wunderground v.1.15,2013-12-12 15:00:00,
2013-12-12 10:05:00,17.7,7.9,30.33,NNE,16,2.0,8.0,65,0.00,,,0.00,Wunderground v.1.15,2013-12-12 15:05:00,
2013-12-12 10:10:00,17.7,6.9,30.33,NE,44,3.0,3.0,62,0.00,,,0.00,Wunderground v.1.15,2013-12-12 15:10:00,
2013-12-12 10:15:00,17.7,7.6,30.34,NNE,18,4.0,4.0,64,0.00,,,0.00,Wunderground v.1.15,2013-12-12 15:15:00,
2013-12-12 10:20:00,17.6,7.1,30.33,NE,50,4.0,4.0,63,0.00,,,0.00,Wunderground v.1.15,2013-12-12 15:20:00,
2013-12-12 10:25:00,18.2,8.1,30.33,NE,42,3.0,8.0,64,0.00,,,0.00,Wunderground v.1.15,2013-12-12 15:25:00,
2013-12-12 10:30:00,18.6,8.4,30.33,North,350,2.0,2.0,64,0.00,,,0.00,Wunderground v.1.15,2013-12-12 15:30:00,
2013-12-12 10:35:00,18.7,7.8,30.33,North,360,2.0,8.0,62,0.00,,,0.00,Wunderground v.1.15,2013-12-12 15:35:00,
2013-12-12 10:45:00,18.6,7.4,30.33,ENE,61,3.0,8.0,61,0.00,,,0.00,Wunderground v.1.15,2013-12-12 15:45:00,
2013-12-12 10:50:00,19.0,8.5,30.33,NNW,338,2.0,8.0,63,0.00,,,0.00,Wunderground v.1.15,2013-12-12 15:50:00,
2013-12-12 10:55:00,19.4,8.5,30.32,NE,54,2.0,8.0,62,0.00,,,0.00,Wunderground v.1.15,2013-12-12 15:55:00,
2013-12-12 11:05:00,18.9,7.7,30.31,NNE,24,4.0,8.0,61,0.00,,,0.00,Wunderground v.1.15,2013-12-12 16:05:00,
2013-12-12 11:10:00,19.2,7.9,30.31,NNW,340,3.0,8.0,61,0.00,,,0.00,Wunderground v.1.15,2013-12-12 16:10:00,
2013-12-12 11:15:00,19.1,7.1,30.30,NNE,18,3.0,8.0,59,0.00,,,0.00,Wunderground v.1.15,2013-12-12 16:15:00,
2013-12-12 11:20:00,19.3,8.4,30.30,NNE,22,3.0,8.0,62,0.00,,,0.00,Wunderground v.1.15,2013-12-12 16:20:00,
2013-12-12 11:25:00,19.9,9.0,30.30,North,360,2.0,8.0,62,0.00,,,0.00,Wunderground v.1.15,2013-12-12 16:25:00,
2013-12-12 11:30:00,19.8,8.9,30.29,NE,38,3.0,8.0,62,0.00,,,0.00,Wunderground v.1.15,2013-12-12 16:30:00,
2013-12-12 11:35:00,19.3,8.4,30.29,NE,35,4.0,8.0,62,0.00,,,0.00,Wunderground v.1.15,2013-12-12 16:35:00,
2013-12-12 11:40:00,19.0,8.1,30.29,NNE,31,4.0,4.0,62,0.00,,,0.00,Wunderground v.1.15,2013-12-12 16:40:00,
2013-12-12 11:45:00,19.3,9.1,30.29,NNE,26,3.0,8.0,64,0.00,,,0.00,Wunderground v.1.15,2013-12-12 16:45:00,
2013-12-12 11:55:00,19.6,9.0,30.28,NNE,32,3.0,8.0,63,0.00,,,0.00,Wunderground v.1.15,2013-12-12 16:55:00,
2013-12-12 12:00:00,19.9,10.7,30.28,West,273,2.0,8.0,67,0.00,,,0.00,Wunderground v.1.15,2013-12-12 17:00:00,
2013-12-12 12:10:00,19.7,9.8,30.28,NW,322,2.0,8.0,65,0.00,,,0.00,Wunderground v.1.15,2013-12-12 17:10:00,
2013-12-12 12:15:00,19.5,10.0,30.28,WNW,290,1.0,8.0,66,0.00,,,0.00,Wunderground v.1.15,2013-12-12 17:15:00,
2013-12-12 12:20:00,19.7,9.5,30.27,NNW,332,1.0,8.0,64,0.00,,,0.00,Wunderground v.1.15,2013-12-12 17:20:00,
2013-12-12 12:30:00,21.0,11.1,30.27,West,278,1.0,8.0,65,0.00,,,0.00,Wunderground v.1.15,2013-12-12 17:30:00,
2013-12-12 12:35:00,21.5,11.5,30.26,West,259,2.0,8.0,65,0.00,,,0.00,Wunderground v.1.15,2013-12-12 17:35:00,
2013-12-12 12:40:00,21.4,11.1,30.26,North,355,2.0,8.0,64,0.00,,,0.00,Wunderground v.1.15,2013-12-12 17:40:00,
2013-12-12 12:45:00,21.5,11.5,30.26,WNW,296,2.0,8.0,65,0.00,,,0.00,Wunderground v.1.15,2013-12-12 17:45:00,
2013-12-12 12:55:00,19.7,10.8,30.26,NNW,339,3.0,8.0,68,0.00,,,0.00,Wunderground v.1.15,2013-12-12 17:55:00,
2013-12-12 13:00:00,19.3,10.8,30.26,NNE,21,2.0,8.0,69,0.00,,,0.00,Wunderground v.1.15,2013-12-12 18:00:00,
2013-12-12 13:05:00,19.0,11.1,30.26,WNW,292,2.0,8.0,71,0.00,,,0.00,Wunderground v.1.15,2013-12-12 18:05:00,
2013-12-12 13:10:00,18.8,10.6,30.25,NE,46,1.0,1.0,70,0.00,,,0.00,Wunderground v.1.15,2013-12-12 18:10:00,
2013-12-12 13:15:00,18.8,10.9,30.25,NE,46,1.0,8.0,71,0.00,,,0.00,Wunderground v.1.15,2013-12-12 18:15:00,
2013-12-12 13:20:00,18.8,10.9,30.26,NE,38,0.0,8.0,71,0.00,,,0.00,Wunderground v.1.15,2013-12-12 18:20:00,
2013-12-12 13:25:00,18.6,10.8,30.25,NE,36,1.0,8.0,71,0.00,,,0.00,Wunderground v.1.15,2013-12-12 18:25:00,
2013-12-12 13:30:00,18.5,10.7,30.25,NE,49,1.0,1.0,71,0.00,,,0.00,Wunderground v.1.15,2013-12-12 18:30:00,
2013-12-12 13:35:00,18.4,10.6,30.25,ESE,104,1.0,2.0,71,0.00,,,0.00,Wunderground v.1.15,2013-12-12 18:35:00,
2013-12-12 13:45:00,19.7,11.8,30.25,NE,36,2.0,4.0,71,0.00,,,0.00,Wunderground v.1.15,2013-12-12 18:45:00,
2013-12-12 13:50:00,20.2,11.3,30.25,East,89,3.0,8.0,68,0.00,,,0.00,Wunderground v.1.15,2013-12-12 18:50:00,
2013-12-12 13:55:00,20.3,12.1,30.24,South,182,2.0,8.0,70,0.00,,,0.00,Wunderground v.1.15,2013-12-12 18:55:00,
2013-12-12 14:00:00,20.8,10.9,30.24,WSW,246,2.0,2.0,65,0.00,,,0.00,Wunderground v.1.15,2013-12-12 19:00:00,
2013-12-12 14:05:00,21.5,11.5,30.24,NW,309,2.0,8.0,65,0.00,,,0.00,Wunderground v.1.15,2013-12-12 19:05:00,
2013-12-12 14:10:00,20.8,10.2,30.24,NNW,330,2.0,8.0,63,0.00,,,0.00,Wunderground v.1.15,2013-12-12 19:10:00,
2013-12-12 14:15:00,20.2,9.6,30.24,NNW,332,2.0,8.0,63,0.00,,,0.00,Wunderground v.1.15,2013-12-12 19:15:00,
2013-12-12 14:20:00,19.9,10.4,30.24,NW,326,1.0,1.0,66,0.00,,,0.00,Wunderground v.1.15,2013-12-12 19:20:00,
2013-12-12 14:25:00,19.6,10.4,30.24,NW,306,1.0,8.0,67,0.00,,,0.00,Wunderground v.1.15,2013-12-12 19:25:00,
2013-12-12 14:35:00,19.2,10.7,30.24,NW,307,1.0,8.0,69,0.00,,,0.00,Wunderground v.1.15,2013-12-12 19:35:00,
2013-12-12 14:45:00,18.9,10.7,30.24,NW,307,0.0,8.0,70,0.00,,,0.00,Wunderground v.1.15,2013-12-12 19:45:00,
2013-12-12 14:50:00,18.8,10.9,30.24,NW,323,0.0,8.0,71,0.00,,,0.00,Wunderground v.1.15,2013-12-12 19:50:00,
2013-12-12 14:55:00,18.9,11.0,30.24,NNW,329,0.0,8.0,71,0.00,,,0.00,Wunderground v.1.15,2013-12-12 19:55:00,
2013-12-12 15:00:00,18.9,11.0,30.24,North,355,0.0,8.0,71,0.00,,,0.00,Wunderground v.1.15,2013-12-12 20:00:00,
2013-12-12 15:05:00,18.9,10.7,30.24,North,355,0.0,8.0,70,0.00,,,0.00,Wunderground v.1.15,2013-12-12 20:05:00,
2013-12-12 15:10:00,19.1,11.2,30.24,North,355,0.0,8.0,71,0.00,,,0.00,Wunderground v.1.15,2013-12-12 20:10:00,
2013-12-12 15:20:00,19.7,11.8,30.24,NNW,336,0.0,8.0,71,0.00,,,0.00,Wunderground v.1.15,2013-12-12 20:20:00,
2013-12-12 15:25:00,19.9,11.0,30.24,WSW,258,1.0,8.0,68,0.00,,,0.00,Wunderground v.1.15,2013-12-12 20:25:00,
2013-12-12 15:35:00,19.6,10.4,30.23,NE,54,3.0,8.0,67,0.00,,,0.00,Wunderground v.1.15,2013-12-12 20:35:00,
2013-12-12 15:40:00,19.4,10.6,30.24,WNW,300,2.0,2.0,68,0.00,,,0.00,Wunderground v.1.15,2013-12-12 20:40:00,
2013-12-12 15:45:00,19.1,9.9,30.23,WNW,286,1.0,8.0,67,0.00,,,0.00,Wunderground v.1.15,2013-12-12 20:45:00,
2013-12-12 15:50:00,18.9,10.1,30.24,WNW,286,1.0,1.0,68,0.00,,,0.00,Wunderground v.1.15,2013-12-12 20:50:00,
2013-12-12 15:55:00,18.8,10.3,30.23,WNW,286,0.0,8.0,69,0.00,,,0.00,Wunderground v.1.15,2013-12-12 20:55:00,
2013-12-12 16:00:00,18.6,10.4,30.24,WNW,286,0.0,8.0,70,0.00,,,0.00,Wunderground v.1.15,2013-12-12 21:00:00,
2013-12-12 16:05:00,18.2,10.1,30.24,WNW,286,0.0,8.0,70,0.00,,,0.00,Wunderground v.1.15,2013-12-12 21:05:00,
2013-12-12 16:15:00,17.9,10.1,30.24,WNW,286,0.0,8.0,71,0.00,,,0.00,Wunderground v.1.15,2013-12-12 21:15:00,
2013-12-12 16:20:00,17.9,10.7,30.24,WNW,286,0.0,8.0,73,0.00,,,0.00,Wunderground v.1.15,2013-12-12 21:20:00,
2013-12-12 16:25:00,17.9,9.8,30.24,WNW,292,1.0,8.0,70,0.00,,,0.00,Wunderground v.1.15,2013-12-12 21:25:00,
2013-12-12 16:30:00,18.0,9.9,30.24,West,281,1.0,1.0,70,0.00,,,0.00,Wunderground v.1.15,2013-12-12 21:30:00,
2013-12-12 16:35:00,17.8,9.3,30.24,WNW,284,1.0,8.0,69,0.00,,,0.00,Wunderground v.1.15,2013-12-12 21:35:00,
2013-12-12 16:40:00,17.6,9.5,30.24,WNW,284,0.0,8.0,70,0.00,,,0.00,Wunderground v.1.15,2013-12-12 21:40:00,
2013-12-12 16:45:00,17.2,9.1,30.24,WNW,284,0.0,8.0,70,0.00,,,0.00,Wunderground v.1.15,2013-12-12 21:45:00,
2013-12-12 16:55:00,16.5,8.4,30.24,West,273,0.0,8.0,70,0.00,,,0.00,Wunderground v.1.15,2013-12-12 21:55:00,
2013-12-12 17:00:00,16.1,8.0,30.23,West,273,0.0,8.0,70,0.00,,,0.00,Wunderground v.1.15,2013-12-12 22:00:00,
2013-12-12 17:10:00,15.6,7.9,30.23,West,273,0.0,8.0,71,0.00,,,0.00,Wunderground v.1.15,2013-12-12 22:10:00,
2013-12-12 17:15:00,15.3,7.6,30.23,West,273,0.0,8.0,71,0.00,,,0.00,Wunderground v.1.15,2013-12-12 22:15:00,
2013-12-12 17:20:00,15.1,7.7,30.23,West,273,0.0,8.0,72,0.00,,,0.00,Wunderground v.1.15,2013-12-12 22:20:00,
2013-12-12 17:25:00,15.0,7.6,30.23,West,273,0.0,8.0,72,0.00,,,0.00,Wunderground v.1.15,2013-12-12 22:25:00,
2013-12-12 17:30:00,14.7,7.6,30.24,West,273,0.0,8.0,73,0.00,,,0.00,Wunderground v.1.15,2013-12-12 22:30:00,
2013-12-12 17:35:00,14.6,7.5,30.24,West,273,0.0,8.0,73,0.00,,,0.00,Wunderground v.1.15,2013-12-12 22:35:00,
2013-12-12 17:40:00,14.5,7.4,30.23,West,273,0.0,8.0,73,0.00,,,0.00,Wunderground v.1.15,2013-12-12 22:40:00,
2013-12-12 17:45:00,14.5,7.4,30.23,NW,313,0.0,8.0,73,0.00,,,0.00,Wunderground v.1.15,2013-12-12 22:45:00,
2013-12-12 17:55:00,14.5,7.4,30.23,WNW,295,0.0,8.0,73,0.00,,,0.00,Wunderground v.1.15,2013-12-12 22:55:00,
2013-12-12 18:00:00,14.2,7.1,30.23,WNW,295,0.0,8.0,73,0.00,,,0.00,Wunderground v.1.15,2013-12-12 23:00:00,
2013-12-12 18:05:00,14.0,6.9,30.23,WNW,295,0.0,8.0,73,0.00,,,0.00,Wunderground v.1.15,2013-12-12 23:05:00,
2013-12-12 18:10:00,13.9,6.8,30.23,WNW,295,0.0,8.0,73,0.00,,,0.00,Wunderground v.1.15,2013-12-12 23:10:00,
2013-12-12 18:15:00,13.8,7.0,30.23,WNW,295,0.0,8.0,74,0.00,,,0.00,Wunderground v.1.15,2013-12-12 23:15:00,
2013-12-12 18:20:00,13.9,7.1,30.23,WNW,295,0.0,8.0,74,0.00,,,0.00,Wunderground v.1.15,2013-12-12 23:20:00,
2013-12-12 18:25:00,14.0,6.9,30.23,WNW,295,0.0,8.0,73,0.00,,,0.00,Wunderground v.1.15,2013-12-12 23:25:00,
2013-12-12 18:30:00,14.0,6.9,30.23,WNW,295,0.0,8.0,73,0.00,,,0.00,Wunderground v.1.15,2013-12-12 23:30:00,
2013-12-12 18:40:00,14.0,6.9,30.23,WNW,295,0.0,8.0,73,0.00,,,0.00,Wunderground v.1.15,2013-12-12 23:40:00,
2013-12-12 18:45:00,14.0,6.9,30.23,WNW,295,0.0,8.0,73,0.00,,,0.00,Wunderground v.1.15,2013-12-12 23:45:00,
2013-12-12 18:50:00,13.9,7.1,30.23,WNW,295,0.0,8.0,74,0.00,,,0.00,Wunderground v.1.15,2013-12-12 23:50:00,
2013-12-12 18:55:00,13.8,7.0,30.24,WNW,295,0.0,8.0,74,0.00,,,0.00,Wunderground v.1.15,2013-12-12 23:55:00,
2013-12-12 19:00:00,13.6,6.8,30.23,WNW,295,0.0,8.0,74,0.00,,,0.00,Wunderground v.1.15,2013-12-13 00:00:00,
2013-12-12 19:05:00,13.5,6.8,30.23,WNW,295,0.0,8.0,74,0.00,,,0.00,Wunderground v.1.15,2013-12-13 00:05:00,
2013-12-12 19:10:00,13.7,6.9,30.23,WNW,295,0.0,8.0,74,0.00,,,0.00,Wunderground v.1.15,2013-12-13 00:10:00,
2013-12-12 19:15:00,13.8,6.7,30.23,WNW,295,0.0,8.0,73,0.00,,,0.00,Wunderground v.1.15,2013-12-13 00:15:00,
2013-12-12 19:20:00,13.8,6.7,30.22,WNW,295,0.0,8.0,73,0.00,,,0.00,Wunderground v.1.15,2013-12-13 00:20:00,
2013-12-12 19:25:00,13.8,6.7,30.22,WNW,295,0.0,8.0,73,0.00,,,0.00,Wunderground v.1.15,2013-12-13 00:25:00,
2013-12-12 19:30:00,13.7,6.6,30.22,WNW,295,0.0,8.0,73,0.00,,,0.00,Wunderground v.1.15,2013-12-13 00:30:00,
2013-12-12 19:40:00,13.6,6.8,30.22,WNW,295,0.0,8.0,74,0.00,,,0.00,Wunderground v.1.15,2013-12-13 00:40:00,
2013-12-12 19:45:00,13.6,6.8,30.22,WNW,295,0.0,8.0,74,0.00,,,0.00,Wunderground v.1.15,2013-12-13 00:45:00,
2013-12-12 19:55:00,13.6,6.8,30.22,WNW,295,0.0,8.0,74,0.00,,,0.00,Wunderground v.1.15,2013-12-13 00:55:00,
2013-12-12 20:00:00,13.4,6.7,30.21,WNW,295,0.0,8.0,74,0.00,,,0.00,Wunderground v.1.15,2013-12-13 01:00:00,
2013-12-12 20:05:00,13.2,6.8,30.21,WNW,295,0.0,8.0,75,0.00,,,0.00,Wunderground v.1.15,2013-12-13 01:05:00,
2013-12-12 20:10:00,13.2,6.8,30.21,WNW,295,0.0,8.0,75,0.00,,,0.00,Wunderground v.1.15,2013-12-13 01:10:00,
2013-12-12 20:15:00,13.2,6.8,30.21,WNW,295,0.0,8.0,75,0.00,,,0.00,Wunderground v.1.15,2013-12-13 01:15:00,
2013-12-12 20:20:00,13.1,7.0,30.21,WNW,295,0.0,8.0,76,0.00,,,0.00,Wunderground v.1.15,2013-12-13 01:20:00,
2013-12-12 20:25:00,12.8,6.7,30.20,WNW,295,0.0,8.0,76,0.00,,,0.00,Wunderground v.1.15,2013-12-13 01:25:00,
2013-12-12 20:30:00,12.6,7.0,30.20,WNW,295,0.0,8.0,78,0.00,,,0.00,Wunderground v.1.15,2013-12-13 01:30:00,
2013-12-12 20:40:00,13.0,7.1,30.20,WNW,295,0.0,8.0,77,0.00,,,0.00,Wunderground v.1.15,2013-12-13 01:40:00,
2013-12-12 20:45:00,13.0,7.1,30.19,WNW,293,0.0,8.0,77,0.00,,,0.00,Wunderground v.1.15,2013-12-13 01:45:00,
2013-12-12 20:50:00,13.4,7.5,30.19,WNW,297,0.0,8.0,77,0.00,,,0.00,Wunderground v.1.15,2013-12-13 01:50:00,
2013-12-12 21:00:00,13.7,7.8,30.19,WNW,300,0.0,8.0,77,0.00,,,0.00,Wunderground v.1.15,2013-12-13 02:00:00,